createdAt,value
2022-10-26T04:17:00.122Z,100040.13
2022-10-26T04:19:26.543Z,100034.34
2022-10-26T04:21:53.088Z,100043.81
2022-10-26T04:24:19.565Z,100049.09
2022-10-26T04:26:45.999Z,100054.50
2022-10-26T04:29:13.689Z,100053.81
2022-10-26T04:31:41.276Z,100047.88
2022-10-26T04:34:07.740Z,100055.88
2022-10-26T04:36:35.050Z,100062.78
2022-10-26T04:39:02.011Z,100057.06
2022-10-26T04:41:28.470Z,100052.50
2022-10-26T04:43:54.905Z,100060.28
2022-10-26T04:46:21.393Z,100047.97
2022-10-26T04:48:48.566Z,100054.06
2022-10-26T04:51:15.148Z,100043.63
2022-10-26T04:53:41.620Z,100032.94
2022-10-26T04:56:08.793Z,100033.72
2022-10-26T04:58:41.491Z,100037.50
2022-10-26T05:01:08.093Z,100032.38
2022-10-26T05:03:34.595Z,100016.06
2022-10-26T05:06:01.100Z,100013.38
2022-10-26T05:08:29.844Z,100020.47
2022-10-26T05:10:56.765Z,100029.88
2022-10-26T05:13:23.305Z,100029.94
2022-10-26T05:15:54.162Z,100022.81
2022-10-26T05:18:22.873Z,100023.69
2022-10-26T05:20:55.704Z,100033.59
2022-10-26T05:23:27.294Z,100038.53
2022-10-26T05:25:55.774Z,100037.59
2022-10-26T05:28:22.393Z,100035.84
2022-10-26T05:31:51.199Z,100032.28
2022-10-26T05:34:17.695Z,100037.50
2022-10-26T05:36:44.124Z,100042.69
2022-10-26T05:39:10.530Z,100039.47
2022-10-26T05:41:36.963Z,100047.38
2022-10-26T05:44:03.536Z,100044.75
2022-10-26T05:46:33.181Z,100048.50
2022-10-26T05:48:59.718Z,100047.44
2022-10-26T05:51:26.291Z,100051.59
2022-10-26T05:53:54.663Z,100051.53
2022-10-26T05:56:49.547Z,100056.28
2022-10-26T05:59:18.516Z,100057.84
2022-10-26T06:02:03.802Z,100058.53
2022-10-26T06:04:38.540Z,100057.53
2022-10-26T06:07:12.123Z,100058.47
2022-10-26T06:09:39.715Z,100061.97
2022-10-26T06:12:07.498Z,100071.13
2022-10-26T06:14:35.227Z,100071.91
2022-10-26T06:17:29.703Z,100071.56
2022-10-26T06:20:24.228Z,100076.22
2022-10-26T06:23:18.646Z,100074.16
2022-10-26T06:26:35.046Z,100080.16
2022-10-26T06:29:17.780Z,100079.97
2022-10-26T06:31:48.025Z,100077.28
2022-10-26T06:34:23.095Z,100097.38
2022-10-26T06:36:50.490Z,100100.41
2022-10-26T06:39:18.238Z,100104.66
2022-10-26T06:41:44.943Z,100111.53
2022-10-26T06:44:22.632Z,100115.03
2022-10-26T06:46:55.600Z,100115.91
2022-10-26T06:50:23.208Z,100119.47
2022-10-26T06:53:12.306Z,100126.97
2022-10-26T06:55:49.658Z,100130.34
2022-10-26T06:58:24.416Z,100131.13
2022-10-26T07:00:55.022Z,100138.09
2022-10-26T07:03:25.523Z,100142.53
2022-10-26T07:05:52.170Z,100133.16
2022-10-26T07:08:19.029Z,100141.69
2022-10-26T07:10:47.023Z,100146.31
2022-10-26T07:13:13.571Z,100139.75
2022-10-26T07:15:41.048Z,100136.00
2022-10-26T07:18:07.967Z,100141.44
2022-10-26T07:20:42.083Z,100134.41
2022-10-26T07:23:12.966Z,100144.66
2022-10-26T07:25:40.453Z,100140.41
2022-10-26T07:28:10.130Z,100150.63
2022-10-26T07:30:39.590Z,100155.84
2022-10-26T07:33:32.255Z,100161.09
2022-10-26T07:35:59.891Z,100159.16
2022-10-26T07:38:26.433Z,100173.50
2022-10-26T07:40:54.218Z,100173.03
2022-10-26T07:43:46.515Z,100188.22
2022-10-26T07:46:13.077Z,100189.72
2022-10-26T07:48:41.761Z,100195.53
2022-10-26T07:51:09.557Z,100185.47
2022-10-26T07:54:03.550Z,100187.94
2022-10-26T07:56:45.482Z,100176.97
2022-10-26T07:59:41.379Z,100195.22
2022-10-26T08:02:15.027Z,100200.50
2022-10-26T08:04:43.924Z,100197.38
2022-10-26T08:07:10.395Z,100196.28
2022-10-26T08:09:36.905Z,100192.31
2022-10-26T08:12:03.488Z,100194.19
2022-10-26T08:14:30.112Z,100190.06
2022-10-26T08:17:01.794Z,100202.72
2022-10-26T08:19:28.204Z,100198.84
2022-10-26T08:21:54.656Z,100189.88
2022-10-26T08:24:21.094Z,100197.41
2022-10-26T08:26:47.536Z,100204.69
2022-10-26T08:29:14.162Z,100202.69
2022-10-26T08:31:40.693Z,100197.69
2022-10-26T08:34:07.451Z,100199.16
2022-10-26T08:36:33.988Z,100203.88
2022-10-26T08:41:52.758Z,100201.22
2022-10-26T08:44:42.344Z,100201.84
2022-10-26T08:47:24.063Z,100206.09
2022-10-26T08:49:59.640Z,100212.75
2022-10-26T08:52:36.725Z,100212.16
2022-10-26T08:55:06.315Z,100226.06
2022-10-26T08:57:41.246Z,100213.69
2022-10-26T09:00:29.448Z,100218.91
2022-10-26T09:03:16.253Z,100225.28
2022-10-26T09:06:12.118Z,100225.72
2022-10-26T09:09:14.382Z,100230.56
2022-10-26T09:12:15.152Z,100225.97
2022-10-26T09:14:43.441Z,100229.28
2022-10-26T09:17:26.970Z,100225.53
2022-10-26T09:20:35.277Z,100232.94
2022-10-26T09:23:20.414Z,100233.28
2022-10-26T09:25:55.076Z,100236.59
2022-10-26T09:28:21.997Z,100238.44
2022-10-26T09:30:48.693Z,100246.84
2022-10-26T09:33:23.283Z,100255.38
2022-10-26T09:35:59.191Z,100252.97
2022-10-26T09:38:34.614Z,100253.59
2022-10-26T09:41:27.149Z,100251.06
2022-10-26T09:44:27.138Z,100258.31
2022-10-26T09:47:03.125Z,100262.91
2022-10-26T09:49:53.522Z,100251.13
2022-10-26T09:52:20.030Z,100255.69
2022-10-26T09:54:46.489Z,100264.53
2022-10-26T09:57:16.079Z,100274.81
2022-10-26T09:59:42.823Z,100263.00
2022-10-26T10:02:43.973Z,100271.34
2022-10-26T10:05:49.793Z,100273.56
2022-10-26T10:08:19.523Z,100269.81
2022-10-26T10:10:59.991Z,100270.50
2022-10-26T10:13:35.878Z,100270.28
2022-10-26T10:16:04.510Z,100280.56
2022-10-26T10:18:31.688Z,100274.78
2022-10-26T10:20:59.628Z,100276.63
2022-10-26T10:23:33.358Z,100275.53
2022-10-26T10:26:01.502Z,100286.19
2022-10-26T10:28:42.824Z,100294.78
2022-10-26T10:31:22.330Z,100297.16
2022-10-26T10:33:58.219Z,100303.72
2022-10-26T10:36:32.336Z,100301.41
2022-10-26T10:39:03.147Z,100323.56
2022-10-26T10:41:36.311Z,100316.13
2022-10-26T10:44:15.202Z,100310.69
2022-10-26T10:46:43.857Z,100309.25
2022-10-26T10:49:22.805Z,100303.56
2022-10-26T10:51:49.730Z,100302.06
2022-10-26T10:54:31.979Z,100311.19
2022-10-26T10:57:48.907Z,100306.41
2022-10-26T11:00:18.753Z,100329.78
2022-10-26T11:03:16.775Z,100319.28
2022-10-26T11:06:03.567Z,100322.91
2022-10-26T11:08:45.368Z,100328.78
2022-10-26T11:11:44.702Z,100332.50
2022-10-26T11:14:18.703Z,100323.53
2022-10-26T11:17:11.437Z,100337.72
2022-10-26T11:19:45.257Z,100334.50
2022-10-26T11:22:16.796Z,100336.22
2022-10-26T11:25:07.722Z,100338.56
2022-10-26T11:27:43.558Z,100339.22
2022-10-26T11:30:18.221Z,100337.53
2022-10-26T11:32:51.112Z,100335.84
2022-10-26T11:35:36.684Z,100332.91
2022-10-26T11:38:05.995Z,100336.50
2022-10-26T11:40:54.705Z,100334.72
2022-10-26T11:43:41.332Z,100342.06
2022-10-26T11:46:27.943Z,100343.91
2022-10-26T11:49:11.202Z,100339.72
2022-10-26T11:52:26.867Z,100342.84
2022-10-26T11:54:54.546Z,100345.53
2022-10-26T11:57:25.974Z,100343.13
2022-10-26T12:00:02.449Z,100342.00
2022-10-26T12:03:08.976Z,100344.41
2022-10-26T12:05:38.354Z,100352.78
2022-10-26T12:08:37.586Z,100349.19
2022-10-26T12:11:13.352Z,100350.66
2022-10-26T12:13:56.604Z,100347.78
2022-10-26T12:16:48.595Z,100352.97
2022-10-26T12:19:42.250Z,100351.66
2022-10-26T12:22:14.697Z,100356.56
2022-10-26T12:24:46.343Z,100358.09
2022-10-26T12:30:26.924Z,100359.47
2022-10-26T12:32:55.475Z,100356.34
2022-10-26T12:35:44.434Z,100352.81
2022-10-26T12:38:29.141Z,100356.88
2022-10-26T12:41:05.215Z,100353.63
2022-10-26T12:43:33.740Z,100359.19
2022-10-26T12:46:12.450Z,100352.53
2022-10-26T12:48:47.415Z,100348.91
2022-10-26T12:51:21.532Z,100356.25
2022-10-26T12:54:06.907Z,100366.97
2022-10-26T12:57:06.452Z,100363.78
2022-10-26T13:00:05.797Z,100367.66
2022-10-26T13:03:04.281Z,100358.19
2022-10-26T13:06:07.296Z,100358.31
2022-10-26T13:11:38.616Z,100367.81
2022-10-26T13:14:08.999Z,100364.78
2022-10-26T13:16:35.727Z,100369.91
2022-10-26T13:19:02.809Z,100363.78
2022-10-26T13:21:31.664Z,100368.66
2022-10-26T13:24:06.148Z,100374.00
2022-10-26T13:27:17.495Z,100372.63
2022-10-26T13:30:35.634Z,100373.50
2022-10-26T13:33:03.911Z,100377.47
2022-10-26T13:35:31.751Z,100374.66
2022-10-26T13:38:07.413Z,100380.00
2022-10-26T13:40:38.219Z,100372.59
2022-10-26T13:43:10.788Z,100376.25
2022-10-26T13:45:47.273Z,100385.53
2022-10-26T13:48:31.105Z,100395.91
2022-10-26T13:51:15.826Z,100391.28
2022-10-26T13:53:55.148Z,100386.34
2022-10-26T13:56:21.650Z,100381.66
2022-10-26T14:02:06.468Z,100395.63
2022-10-26T14:04:32.954Z,100385.47
2022-10-26T14:06:59.548Z,100383.78
2022-10-26T14:09:28.846Z,100382.09
2022-10-26T14:12:00.957Z,100397.06
2022-10-26T14:14:32.328Z,100401.19
2022-10-26T14:16:59.581Z,100403.25
2022-10-26T14:19:31.482Z,100403.56
2022-10-26T14:21:58.801Z,100405.28
2022-10-26T14:24:48.264Z,100409.75
2022-10-26T14:27:23.193Z,100414.94
2022-10-26T14:30:20.483Z,100413.84
2022-10-26T14:32:40.144Z,100409.25
2022-10-26T14:35:12.569Z,100414.47
2022-10-26T14:37:46.341Z,100414.69
2022-10-26T14:40:27.297Z,100419.13
2022-10-26T14:43:02.446Z,100421.69
2022-10-26T14:45:49.188Z,100414.00
2022-10-26T14:48:31.281Z,100421.22
2022-10-26T14:51:10.979Z,100421.22
2022-10-26T14:53:40.834Z,100416.94
2022-10-26T14:56:30.047Z,100419.28
2022-10-26T14:58:59.196Z,100425.69
2022-10-26T15:01:34.546Z,100423.75
2022-10-26T15:04:07.351Z,100424.53
2022-10-26T15:06:44.431Z,100419.72
2022-10-26T15:09:32.805Z,100427.84
2022-10-26T15:11:59.937Z,100431.22
2022-10-26T15:14:27.497Z,100429.72
2022-10-26T15:16:56.948Z,100432.88
2022-10-26T15:19:24.371Z,100441.16
2022-10-26T15:21:53.121Z,100435.19
2022-10-26T15:24:22.626Z,100442.16
2022-10-26T15:26:52.485Z,100444.16
2022-10-26T15:29:36.663Z,100441.91
2022-10-26T15:32:07.550Z,100442.00
2022-10-26T15:34:34.074Z,100448.00
2022-10-26T15:37:00.558Z,100450.53
2022-10-26T15:39:27.600Z,100451.66
2022-10-26T15:41:54.308Z,100456.00
2022-10-26T15:44:22.118Z,100449.16
2022-10-26T15:46:50.052Z,100454.22
2022-10-26T15:49:19.756Z,100462.72
2022-10-26T15:51:48.010Z,100465.13
2022-10-26T15:54:15.221Z,100470.41
2022-10-26T15:56:43.701Z,100477.38
2022-10-26T15:59:17.719Z,100478.34
2022-10-26T16:01:44.510Z,100473.88
2022-10-26T16:04:12.137Z,100478.06
2022-10-26T16:06:40.911Z,100470.75
2022-10-26T16:09:15.618Z,100475.78
2022-10-26T16:11:43.123Z,100484.53
2022-10-26T16:14:10.876Z,100488.44
2022-10-26T16:16:37.553Z,100493.34
2022-10-26T16:19:29.402Z,100493.81
2022-10-26T16:21:51.495Z,100497.66
2022-10-26T16:24:18.195Z,100497.28
2022-10-26T16:26:44.677Z,100498.81
2022-10-26T16:29:11.158Z,100506.13
2022-10-26T16:31:37.598Z,100505.06
2022-10-26T16:34:04.407Z,100512.25
2022-10-26T16:36:33.990Z,100519.03
2022-10-26T16:41:27.379Z,100519.22
2022-10-26T16:43:56.372Z,100528.84
2022-10-26T16:46:22.823Z,100530.28
2022-10-26T16:48:50.283Z,100526.59
2022-10-26T16:51:22.060Z,100532.94
2022-10-26T16:53:51.609Z,100532.56
2022-10-26T16:56:20.216Z,100543.81
2022-10-26T16:58:46.901Z,100543.13
2022-10-26T17:01:18.196Z,100546.47
2022-10-26T17:03:45.789Z,100545.38
2022-10-26T17:06:12.840Z,100547.72
2022-10-26T17:08:39.517Z,100557.66
2022-10-26T17:11:15.675Z,100562.50
2022-10-26T17:13:42.332Z,100562.19
2022-10-26T17:16:12.962Z,100564.97
2022-10-26T17:18:40.988Z,100564.50
2022-10-26T17:21:09.159Z,100572.50
2022-10-26T17:23:35.604Z,100576.56
2022-10-26T17:26:28.598Z,100579.47
2022-10-26T17:28:56.845Z,100575.16
2022-10-26T17:31:25.003Z,100582.25
2022-10-26T17:33:51.758Z,100599.13
2022-10-26T17:36:20.631Z,100597.13
2022-10-26T17:38:52.335Z,100609.56
2022-10-26T17:41:20.602Z,100612.84
2022-10-26T17:43:49.052Z,100618.66
2022-10-26T17:46:22.827Z,100621.84
2022-10-26T17:48:49.264Z,100627.81
2022-10-26T17:51:18.317Z,100636.13
2022-10-26T17:53:49.247Z,100634.03
2022-10-26T17:56:21.402Z,100636.88
2022-10-26T17:58:56.405Z,100644.75
2022-10-26T18:01:23.299Z,100645.97
2022-10-26T18:03:50.274Z,100645.44
2022-10-26T18:06:17.639Z,100657.03
2022-10-26T18:08:45.225Z,100662.28
2022-10-26T18:11:14.900Z,100658.16
2022-10-26T18:13:41.411Z,100657.31
2022-10-26T18:16:12.409Z,100659.16
2022-10-26T18:18:41.087Z,100665.72
2022-10-26T18:21:10.897Z,100662.75
2022-10-26T18:23:37.857Z,100682.34
2022-10-26T18:26:15.207Z,100678.44
2022-10-26T18:28:42.164Z,100681.38
2022-10-26T18:31:11.409Z,100680.47
2022-10-26T18:33:38.619Z,100692.41
2022-10-26T18:36:08.825Z,100690.63
2022-10-26T18:38:35.713Z,100694.38
2022-10-26T18:41:29.027Z,100698.88
2022-10-26T18:43:58.901Z,100702.06
2022-10-26T18:46:30.739Z,100710.28
2022-10-26T18:48:59.242Z,100704.56
2022-10-26T18:51:30.504Z,100709.59
2022-10-26T18:53:58.288Z,100707.56
2022-10-26T18:56:25.559Z,100712.78
2022-10-26T18:58:57.110Z,100706.88
2022-10-26T19:01:28.721Z,100709.31
2022-10-26T19:04:03.125Z,100703.03
2022-10-26T19:06:35.426Z,100706.19
2022-10-26T19:09:02.596Z,100716.94
2022-10-26T19:11:30.589Z,100709.28
2022-10-26T19:13:57.622Z,100715.53
2022-10-26T19:16:44.771Z,100713.22
2022-10-26T19:19:13.629Z,100716.00
2022-10-26T19:21:40.119Z,100714.38
2022-10-26T19:24:11.985Z,100722.19
2022-10-26T19:26:42.421Z,100716.75
2022-10-26T19:29:14.918Z,100727.38
2022-10-26T19:31:42.892Z,100732.38
2022-10-26T19:34:10.731Z,100734.09
2022-10-26T19:36:37.192Z,100727.41
2022-10-26T19:39:03.667Z,100741.66
2022-10-26T19:41:31.263Z,100742.44
2022-10-26T19:46:32.583Z,100759.88
2022-10-26T19:49:01.321Z,100757.44
2022-10-26T19:51:30.581Z,100757.94
2022-10-26T19:54:03.206Z,100762.75
2022-10-26T19:56:34.410Z,100766.16
2022-10-26T19:59:02.119Z,100768.28
2022-10-26T20:01:28.960Z,100771.47
2022-10-26T20:03:55.721Z,100763.78
2022-10-26T20:06:22.230Z,100771.69
2022-10-26T20:08:49.650Z,100770.09
2022-10-26T20:11:17.668Z,100777.78
2022-10-26T20:13:46.065Z,100771.78
2022-10-26T20:16:13.601Z,100782.38
2022-10-26T20:18:43.977Z,100782.22
2022-10-26T20:21:14.302Z,100786.59
2022-10-26T20:23:40.739Z,100786.63
2022-10-26T20:26:07.318Z,100781.53
2022-10-26T20:28:33.843Z,100786.91
2022-10-26T20:31:01.005Z,100789.00
2022-10-26T20:33:27.553Z,100785.47
2022-10-26T20:35:58.647Z,100793.56
2022-10-26T20:38:26.163Z,100797.13
2022-10-26T20:40:57.815Z,100804.19
2022-10-26T20:43:26.286Z,100804.13
2022-10-26T20:45:54.114Z,100805.13
2022-10-26T20:48:21.216Z,100792.84
2022-10-26T20:50:59.224Z,100806.31
2022-10-26T20:53:32.192Z,100803.78
2022-10-26T20:56:01.517Z,100802.28
2022-10-26T20:58:49.926Z,100801.66
2022-10-26T21:01:30.168Z,100806.25
2022-10-26T21:03:59.023Z,100806.31
2022-10-26T21:06:26.166Z,100809.91
2022-10-26T21:08:54.365Z,100809.81
2022-10-26T21:11:22.956Z,100812.22
2022-10-26T21:13:50.268Z,100816.03
2022-10-26T21:16:17.277Z,100815.25
2022-10-26T21:18:43.915Z,100818.19
2022-10-26T21:21:10.596Z,100816.53
2022-10-26T21:23:39.353Z,100818.44
2022-10-26T21:26:06.655Z,100815.66
2022-10-26T21:28:39.207Z,100811.47
2022-10-26T21:31:07.472Z,100820.19
2022-10-26T21:33:34.175Z,100812.47
2022-10-26T21:36:02.661Z,100812.53
2022-10-26T21:38:30.593Z,100810.53
2022-10-26T21:41:06.285Z,100808.91
2022-10-26T21:43:33.638Z,100822.88
2022-10-26T21:46:03.396Z,100815.06
2022-10-26T21:48:31.532Z,100829.53
2022-10-26T21:50:58.093Z,100827.69
2022-10-26T21:53:26.668Z,100826.25
2022-10-26T21:56:04.328Z,100826.44
2022-10-26T21:58:31.076Z,100832.97
